リーブルヴィル の空港の天気 - METARとTAF

リーブルヴィル国際空港 ( FOOL / LBV ) - ガボン リーブルヴィル
飛行場実況気象(Metar)
観測時間09/23 00:30 WAT (09/22 23:30 UTC)
風向・風速南西 4m/s
視程10km以上
天気現象
少しの雲 雲底高度 300m
気温27℃
湿度84%
気圧1012hPa
METARFOOL 222330Z 23008KT 200V270 9999 FEW010 27/24 Q1012 NOSIG
過去の天気等 Google飛行場航空写真 Wunderground天気予報

過去48時間のMETAR

飛行場予報(TAF)
発表時間: 9/23 00:00 WAT (9/22 23:00 UTC)
予報対象時間: 23日1時 WAT ~ 24日7時 WAT
風向・風速南西 4m/s
視程10km以上
全天の4割程度の雲 雲底高度 300m
全天の8割程度の雲 雲底高度 910m
TAF FOOL 222300Z 2300/2406 22008KT 9999 SCT010 BKN030